sensor_id;sensor_type;location;lat;lon;timestamp;temperature;humidity
66928;DHT22;59882;45.624;11.698;2023-04-24T00:02:23;17.30;74.40
66928;DHT22;59882;45.624;11.698;2023-04-24T00:04:49;17.30;73.70
66928;DHT22;59882;45.624;11.698;2023-04-24T00:07:15;17.30;73.60
66928;DHT22;59882;45.624;11.698;2023-04-24T00:09:45;17.30;73.50
66928;DHT22;59882;45.624;11.698;2023-04-24T00:12:11;17.30;74.10
66928;DHT22;59882;45.624;11.698;2023-04-24T00:14:36;17.30;73.90
66928;DHT22;59882;45.624;11.698;2023-04-24T00:17:02;17.20;74.00
66928;DHT22;59882;45.624;11.698;2023-04-24T00:19:29;17.20;73.40
66928;DHT22;59882;45.624;11.698;2023-04-24T00:21:55;17.20;73.80
66928;DHT22;59882;45.624;11.698;2023-04-24T00:24:20;17.20;73.70
66928;DHT22;59882;45.624;11.698;2023-04-24T00:26:46;17.20;73.60
66928;DHT22;59882;45.624;11.698;2023-04-24T00:29:12;17.20;73.40
66928;DHT22;59882;45.624;11.698;2023-04-24T00:31:38;17.20;73.60
66928;DHT22;59882;45.624;11.698;2023-04-24T00:34:04;17.20;73.40
66928;DHT22;59882;45.624;11.698;2023-04-24T00:36:30;17.10;73.30
66928;DHT22;59882;45.624;11.698;2023-04-24T00:38:56;17.10;73.30
66928;DHT22;59882;45.624;11.698;2023-04-24T00:41:22;17.10;73.00
66928;DHT22;59882;45.624;11.698;2023-04-24T00:43:48;17.10;73.10
66928;DHT22;59882;45.624;11.698;2023-04-24T00:46:14;17.10;73.60
66928;DHT22;59882;45.624;11.698;2023-04-24T00:48:40;17.10;73.90
66928;DHT22;59882;45.624;11.698;2023-04-24T00:51:06;17.00;74.10
66928;DHT22;59882;45.624;11.698;2023-04-24T00:53:32;17.00;73.90
66928;DHT22;59882;45.624;11.698;2023-04-24T00:55:58;17.00;73.20
66928;DHT22;59882;45.624;11.698;2023-04-24T00:58:25;17.00;73.50
66928;DHT22;59882;45.624;11.698;2023-04-24T01:00:52;17.00;73.10
66928;DHT22;59882;45.624;11.698;2023-04-24T01:03:25;17.00;73.10
66928;DHT22;59882;45.624;11.698;2023-04-24T01:05:52;17.00;73.50
66928;DHT22;59882;45.624;11.698;2023-04-24T01:08:18;17.00;73.10
66928;DHT22;59882;45.624;11.698;2023-04-24T01:10:44;17.00;73.60
66928;DHT22;59882;45.624;11.698;2023-04-24T01:13:11;17.00;73.50
66928;DHT22;59882;45.624;11.698;2023-04-24T01:15:37;17.00;73.40
66928;DHT22;59882;45.624;11.698;2023-04-24T01:18:03;17.00;73.10
66928;DHT22;59882;45.624;11.698;2023-04-24T01:20:29;17.00;73.10
66928;DHT22;59882;45.624;11.698;2023-04-24T01:22:55;17.00;73.10
66928;DHT22;59882;45.624;11.698;2023-04-24T01:25:22;16.90;72.70
66928;DHT22;59882;45.624;11.698;2023-04-24T01:27:48;16.90;73.10
66928;DHT22;59882;45.624;11.698;2023-04-24T01:30:14;16.90;73.00
66928;DHT22;59882;45.624;11.698;2023-04-24T01:32:41;16.90;72.60
66928;DHT22;59882;45.624;11.698;2023-04-24T01:35:10;16.90;72.70
66928;DHT22;59882;45.624;11.698;2023-04-24T01:37:35;16.90;72.30
66928;DHT22;59882;45.624;11.698;2023-04-24T01:40:04;16.90;72.30
66928;DHT22;59882;45.624;11.698;2023-04-24T01:42:30;16.90;72.40
66928;DHT22;59882;45.624;11.698;2023-04-24T01:44:57;16.90;72.20
66928;DHT22;59882;45.624;11.698;2023-04-24T01:47:23;16.90;71.90
66928;DHT22;59882;45.624;11.698;2023-04-24T01:49:50;16.90;71.90
66928;DHT22;59882;45.624;11.698;2023-04-24T01:52:16;16.90;71.80
66928;DHT22;59882;45.624;11.698;2023-04-24T01:54:43;16.90;72.00
66928;DHT22;59882;45.624;11.698;2023-04-24T01:57:08;16.90;72.00
66928;DHT22;59882;45.624;11.698;2023-04-24T01:59:34;16.90;71.80
66928;DHT22;59882;45.624;11.698;2023-04-24T02:02:02;16.90;71.50
66928;DHT22;59882;45.624;11.698;2023-04-24T02:04:28;16.90;71.50
66928;DHT22;59882;45.624;11.698;2023-04-24T02:06:53;16.90;71.20
66928;DHT22;59882;45.624;11.698;2023-04-24T02:09:20;16.90;71.10
66928;DHT22;59882;45.624;11.698;2023-04-24T02:11:45;16.80;71.10
66928;DHT22;59882;45.624;11.698;2023-04-24T02:14:11;16.90;71.00
66928;DHT22;59882;45.624;11.698;2023-04-24T02:16:37;16.90;71.00
66928;DHT22;59882;45.624;11.698;2023-04-24T02:19:03;16.90;70.70
66928;DHT22;59882;45.624;11.698;2023-04-24T02:21:29;16.90;70.20
66928;DHT22;59882;45.624;11.698;2023-04-24T02:23:56;16.80;70.20
66928;DHT22;59882;45.624;11.698;2023-04-24T02:26:22;16.90;70.40
66928;DHT22;59882;45.624;11.698;2023-04-24T02:28:47;16.90;70.40
66928;DHT22;59882;45.624;11.698;2023-04-24T02:31:13;16.80;70.30
66928;DHT22;59882;45.624;11.698;2023-04-24T02:33:38;16.80;70.20
66928;DHT22;59882;45.624;11.698;2023-04-24T02:36:04;16.80;70.10
66928;DHT22;59882;45.624;11.698;2023-04-24T02:38:30;16.80;70.20
66928;DHT22;59882;45.624;11.698;2023-04-24T02:40:56;16.80;70.00
66928;DHT22;59882;45.624;11.698;2023-04-24T02:43:21;16.80;69.90
66928;DHT22;59882;45.624;11.698;2023-04-24T02:45:47;16.80;69.90
66928;DHT22;59882;45.624;11.698;2023-04-24T02:48:13;16.80;69.90
66928;DHT22;59882;45.624;11.698;2023-04-24T02:50:39;16.80;69.70
66928;DHT22;59882;45.624;11.698;2023-04-24T02:53:04;16.80;69.60
66928;DHT22;59882;45.624;11.698;2023-04-24T02:55:30;16.80;69.40
66928;DHT22;59882;45.624;11.698;2023-04-24T02:57:56;16.80;69.10
66928;DHT22;59882;45.624;11.698;2023-04-24T03:00:21;16.80;69.00
66928;DHT22;59882;45.624;11.698;2023-04-24T03:02:47;16.80;68.60
66928;DHT22;59882;45.624;11.698;2023-04-24T03:05:13;16.80;68.50
66928;DHT22;59882;45.624;11.698;2023-04-24T03:07:39;16.80;68.50
66928;DHT22;59882;45.624;11.698;2023-04-24T03:10:05;16.80;68.60
66928;DHT22;59882;45.624;11.698;2023-04-24T03:12:31;16.80;68.70
66928;DHT22;59882;45.624;11.698;2023-04-24T03:14:57;16.80;68.70
66928;DHT22;59882;45.624;11.698;2023-04-24T03:17:22;16.80;68.50
66928;DHT22;59882;45.624;11.698;2023-04-24T03:19:48;16.70;68.40
66928;DHT22;59882;45.624;11.698;2023-04-24T03:22:13;16.70;68.30
66928;DHT22;59882;45.624;11.698;2023-04-24T03:24:39;16.80;68.30
66928;DHT22;59882;45.624;11.698;2023-04-24T03:27:05;16.80;68.40
66928;DHT22;59882;45.624;11.698;2023-04-24T03:29:31;16.70;68.60
66928;DHT22;59882;45.624;11.698;2023-04-24T03:31:56;16.80;68.40
66928;DHT22;59882;45.624;11.698;2023-04-24T03:34:22;16.70;68.20
66928;DHT22;59882;45.624;11.698;2023-04-24T03:36:48;16.70;68.00
66928;DHT22;59882;45.624;11.698;2023-04-24T03:41:59;16.70;68.00
66928;DHT22;59882;45.624;11.698;2023-04-24T03:44:25;16.70;68.10
66928;DHT22;59882;45.624;11.698;2023-04-24T03:46:51;16.70;67.90
66928;DHT22;59882;45.624;11.698;2023-04-24T03:49:16;16.70;67.90
66928;DHT22;59882;45.624;11.698;2023-04-24T03:51:42;16.70;68.20
66928;DHT22;59882;45.624;11.698;2023-04-24T03:54:08;16.70;68.20
66928;DHT22;59882;45.624;11.698;2023-04-24T03:56:33;16.70;69.00
66928;DHT22;59882;45.624;11.698;2023-04-24T03:58:59;16.70;69.30
66928;DHT22;59882;45.624;11.698;2023-04-24T04:01:25;16.70;69.40
66928;DHT22;59882;45.624;11.698;2023-04-24T04:03:51;16.60;69.30
66928;DHT22;59882;45.624;11.698;2023-04-24T04:06:17;16.60;69.70
66928;DHT22;59882;45.624;11.698;2023-04-24T04:08:43;16.60;70.40
66928;DHT22;59882;45.624;11.698;2023-04-24T04:11:09;16.60;71.30
66928;DHT22;59882;45.624;11.698;2023-04-24T04:13:34;16.50;71.60
66928;DHT22;59882;45.624;11.698;2023-04-24T04:16:00;16.40;71.90
66928;DHT22;59882;45.624;11.698;2023-04-24T04:18:25;16.40;72.10
66928;DHT22;59882;45.624;11.698;2023-04-24T04:20:51;16.40;72.00
66928;DHT22;59882;45.624;11.698;2023-04-24T04:23:17;16.30;71.90
66928;DHT22;59882;45.624;11.698;2023-04-24T04:25:42;16.30;72.20
66928;DHT22;59882;45.624;11.698;2023-04-24T04:28:08;16.30;72.10
66928;DHT22;59882;45.624;11.698;2023-04-24T04:30:34;16.30;73.10
66928;DHT22;59882;45.624;11.698;2023-04-24T04:32:59;16.30;73.70
66928;DHT22;59882;45.624;11.698;2023-04-24T04:35:25;16.20;74.30
66928;DHT22;59882;45.624;11.698;2023-04-24T04:37:51;16.20;74.60
66928;DHT22;59882;45.624;11.698;2023-04-24T04:40:17;16.10;75.20
66928;DHT22;59882;45.624;11.698;2023-04-24T04:42:42;16.00;74.80
66928;DHT22;59882;45.624;11.698;2023-04-24T04:45:11;16.00;75.40
66928;DHT22;59882;45.624;11.698;2023-04-24T04:47:38;15.90;76.30
66928;DHT22;59882;45.624;11.698;2023-04-24T04:50:05;15.90;75.80
66928;DHT22;59882;45.624;11.698;2023-04-24T04:52:31;15.90;76.10
66928;DHT22;59882;45.624;11.698;2023-04-24T04:54:56;15.90;76.40
66928;DHT22;59882;45.624;11.698;2023-04-24T04:57:22;15.80;75.50
66928;DHT22;59882;45.624;11.698;2023-04-24T04:59:48;15.80;75.50
66928;DHT22;59882;45.624;11.698;2023-04-24T05:02:13;15.80;76.50
66928;DHT22;59882;45.624;11.698;2023-04-24T05:04:39;15.70;76.50
66928;DHT22;59882;45.624;11.698;2023-04-24T05:07:05;15.70;76.50
66928;DHT22;59882;45.624;11.698;2023-04-24T05:09:31;15.60;77.60
66928;DHT22;59882;45.624;11.698;2023-04-24T05:11:57;15.60;77.10
66928;DHT22;59882;45.624;11.698;2023-04-24T05:14:23;15.50;78.20
66928;DHT22;59882;45.624;11.698;2023-04-24T05:16:48;15.40;78.60
66928;DHT22;59882;45.624;11.698;2023-04-24T05:19:14;15.40;78.30
66928;DHT22;59882;45.624;11.698;2023-04-24T05:21:40;15.40;78.70
66928;DHT22;59882;45.624;11.698;2023-04-24T05:24:06;15.30;79.00
66928;DHT22;59882;45.624;11.698;2023-04-24T05:26:32;15.30;79.20
66928;DHT22;59882;45.624;11.698;2023-04-24T05:28:57;15.20;79.40
66928;DHT22;59882;45.624;11.698;2023-04-24T05:31:23;15.10;79.30
66928;DHT22;59882;45.624;11.698;2023-04-24T05:33:49;15.10;79.90
66928;DHT22;59882;45.624;11.698;2023-04-24T05:36:14;15.10;80.00
66928;DHT22;59882;45.624;11.698;2023-04-24T05:38:40;15.10;80.10
66928;DHT22;59882;45.624;11.698;2023-04-24T05:41:06;15.10;80.00
66928;DHT22;59882;45.624;11.698;2023-04-24T05:43:31;15.10;79.20
66928;DHT22;59882;45.624;11.698;2023-04-24T05:45:57;15.10;79.00
66928;DHT22;59882;45.624;11.698;2023-04-24T05:48:22;15.20;79.20
66928;DHT22;59882;45.624;11.698;2023-04-24T05:50:48;15.30;78.50
66928;DHT22;59882;45.624;11.698;2023-04-24T05:53:14;15.40;78.40
66928;DHT22;59882;45.624;11.698;2023-04-24T05:55:40;15.40;78.50
66928;DHT22;59882;45.624;11.698;2023-04-24T05:58:05;15.40;78.80
66928;DHT22;59882;45.624;11.698;2023-04-24T06:00:31;15.40;79.20
66928;DHT22;59882;45.624;11.698;2023-04-24T06:02:58;15.20;79.60
66928;DHT22;59882;45.624;11.698;2023-04-24T06:05:24;15.10;80.60
66928;DHT22;59882;45.624;11.698;2023-04-24T06:07:50;14.80;81.70
66928;DHT22;59882;45.624;11.698;2023-04-24T06:10:16;14.60;81.30
66928;DHT22;59882;45.624;11.698;2023-04-24T06:12:42;14.50;81.60
66928;DHT22;59882;45.624;11.698;2023-04-24T06:15:08;14.50;83.20
66928;DHT22;59882;45.624;11.698;2023-04-24T06:17:34;14.50;82.90
66928;DHT22;59882;45.624;11.698;2023-04-24T06:19:59;14.50;82.40
66928;DHT22;59882;45.624;11.698;2023-04-24T06:22:25;14.60;82.80
66928;DHT22;59882;45.624;11.698;2023-04-24T06:24:51;14.60;81.70
66928;DHT22;59882;45.624;11.698;2023-04-24T06:27:16;14.50;82.60
66928;DHT22;59882;45.624;11.698;2023-04-24T06:29:42;14.50;83.00
66928;DHT22;59882;45.624;11.698;2023-04-24T06:32:07;14.50;83.00
66928;DHT22;59882;45.624;11.698;2023-04-24T06:34:33;14.50;82.40
66928;DHT22;59882;45.624;11.698;2023-04-24T06:37:00;14.50;82.40
66928;DHT22;59882;45.624;11.698;2023-04-24T06:39:25;14.50;82.80
66928;DHT22;59882;45.624;11.698;2023-04-24T06:41:51;14.40;82.80
66928;DHT22;59882;45.624;11.698;2023-04-24T06:44:17;14.40;82.90
66928;DHT22;59882;45.624;11.698;2023-04-24T06:46:42;14.30;82.70
66928;DHT22;59882;45.624;11.698;2023-04-24T06:49:08;14.20;83.00
66928;DHT22;59882;45.624;11.698;2023-04-24T06:51:34;14.20;82.40
66928;DHT22;59882;45.624;11.698;2023-04-24T06:53:59;14.10;82.70
66928;DHT22;59882;45.624;11.698;2023-04-24T06:56:26;13.90;83.10
66928;DHT22;59882;45.624;11.698;2023-04-24T06:58:51;13.90;82.20
66928;DHT22;59882;45.624;11.698;2023-04-24T07:01:17;13.80;82.50
66928;DHT22;59882;45.624;11.698;2023-04-24T07:03:43;13.80;83.80
66928;DHT22;59882;45.624;11.698;2023-04-24T07:06:09;13.80;83.30
66928;DHT22;59882;45.624;11.698;2023-04-24T07:08:36;13.80;82.90
66928;DHT22;59882;45.624;11.698;2023-04-24T07:11:02;13.80;82.70
66928;DHT22;59882;45.624;11.698;2023-04-24T07:13:27;13.90;83.00
66928;DHT22;59882;45.624;11.698;2023-04-24T07:15:54;13.90;82.70
66928;DHT22;59882;45.624;11.698;2023-04-24T07:18:21;14.00;82.90
66928;DHT22;59882;45.624;11.698;2023-04-24T07:20:46;14.00;83.00
66928;DHT22;59882;45.624;11.698;2023-04-24T07:23:12;14.00;82.70
66928;DHT22;59882;45.624;11.698;2023-04-24T07:25:38;14.10;82.50
66928;DHT22;59882;45.624;11.698;2023-04-24T07:28:05;14.00;82.90
66928;DHT22;59882;45.624;11.698;2023-04-24T07:30:31;14.00;82.80
66928;DHT22;59882;45.624;11.698;2023-04-24T07:32:58;14.00;83.10
66928;DHT22;59882;45.624;11.698;2023-04-24T07:35:24;14.00;81.30
66928;DHT22;59882;45.624;11.698;2023-04-24T07:37:52;13.90;81.30
66928;DHT22;59882;45.624;11.698;2023-04-24T07:40:19;13.90;81.60
66928;DHT22;59882;45.624;11.698;2023-04-24T07:42:45;14.00;80.50
66928;DHT22;59882;45.624;11.698;2023-04-24T07:45:10;14.00;78.30
66928;DHT22;59882;45.624;11.698;2023-04-24T07:47:36;14.00;77.10
66928;DHT22;59882;45.624;11.698;2023-04-24T07:50:03;14.10;75.60
66928;DHT22;59882;45.624;11.698;2023-04-24T07:52:29;14.10;75.60
66928;DHT22;59882;45.624;11.698;2023-04-24T07:54:55;14.10;75.70
66928;DHT22;59882;45.624;11.698;2023-04-24T07:57:24;14.20;77.40
66928;DHT22;59882;45.624;11.698;2023-04-24T07:59:50;14.10;78.70
66928;DHT22;59882;45.624;11.698;2023-04-24T08:02:16;14.20;78.40
66928;DHT22;59882;45.624;11.698;2023-04-24T08:04:42;14.20;78.30
66928;DHT22;59882;45.624;11.698;2023-04-24T08:07:08;14.20;76.70
66928;DHT22;59882;45.624;11.698;2023-04-24T08:09:34;14.40;77.50
66928;DHT22;59882;45.624;11.698;2023-04-24T08:11:59;14.40;77.80
66928;DHT22;59882;45.624;11.698;2023-04-24T08:14:26;14.50;77.90
66928;DHT22;59882;45.624;11.698;2023-04-24T08:16:54;14.70;77.30
66928;DHT22;59882;45.624;11.698;2023-04-24T08:19:21;14.80;77.40
66928;DHT22;59882;45.624;11.698;2023-04-24T08:21:46;14.90;78.00
66928;DHT22;59882;45.624;11.698;2023-04-24T08:24:12;15.00;78.20
66928;DHT22;59882;45.624;11.698;2023-04-24T08:26:38;15.10;78.10
66928;DHT22;59882;45.624;11.698;2023-04-24T08:29:05;15.20;77.80
66928;DHT22;59882;45.624;11.698;2023-04-24T08:31:32;15.30;77.60
66928;DHT22;59882;45.624;11.698;2023-04-24T08:33:57;15.50;77.60
66928;DHT22;59882;45.624;11.698;2023-04-24T08:36:24;15.60;76.80
66928;DHT22;59882;45.624;11.698;2023-04-24T08:38:49;15.60;75.90
66928;DHT22;59882;45.624;11.698;2023-04-24T08:41:15;15.70;75.70
66928;DHT22;59882;45.624;11.698;2023-04-24T08:43:41;15.60;75.70
66928;DHT22;59882;45.624;11.698;2023-04-24T08:46:08;15.60;75.70
66928;DHT22;59882;45.624;11.698;2023-04-24T08:48:35;15.70;75.80
66928;DHT22;59882;45.624;11.698;2023-04-24T08:51:02;15.70;75.60
66928;DHT22;59882;45.624;11.698;2023-04-24T08:53:30;15.80;74.80
66928;DHT22;59882;45.624;11.698;2023-04-24T08:55:57;15.90;75.00
66928;DHT22;59882;45.624;11.698;2023-04-24T08:58:27;15.90;74.00
66928;DHT22;59882;45.624;11.698;2023-04-24T09:00:57;15.90;74.40
66928;DHT22;59882;45.624;11.698;2023-04-24T09:03:23;16.00;74.20
66928;DHT22;59882;45.624;11.698;2023-04-24T09:05:50;16.10;74.20
66928;DHT22;59882;45.624;11.698;2023-04-24T09:08:19;16.10;73.40
66928;DHT22;59882;45.624;11.698;2023-04-24T09:10:45;16.10;72.30
66928;DHT22;59882;45.624;11.698;2023-04-24T09:13:11;16.20;72.50
66928;DHT22;59882;45.624;11.698;2023-04-24T09:15:38;16.10;71.40
66928;DHT22;59882;45.624;11.698;2023-04-24T09:18:04;16.10;72.50
66928;DHT22;59882;45.624;11.698;2023-04-24T09:20:31;16.10;70.40
66928;DHT22;59882;45.624;11.698;2023-04-24T09:22:57;16.20;70.60
66928;DHT22;59882;45.624;11.698;2023-04-24T09:25:34;16.20;69.00
66928;DHT22;59882;45.624;11.698;2023-04-24T09:28:02;16.20;66.30
66928;DHT22;59882;45.624;11.698;2023-04-24T09:30:29;16.20;69.10
66928;DHT22;59882;45.624;11.698;2023-04-24T09:33:13;16.30;69.00
66928;DHT22;59882;45.624;11.698;2023-04-24T09:35:48;16.40;68.10
66928;DHT22;59882;45.624;11.698;2023-04-24T09:38:14;16.60;67.90
66928;DHT22;59882;45.624;11.698;2023-04-24T09:40:40;16.70;66.10
66928;DHT22;59882;45.624;11.698;2023-04-24T09:43:10;16.70;64.30
66928;DHT22;59882;45.624;11.698;2023-04-24T09:45:37;16.80;66.80
66928;DHT22;59882;45.624;11.698;2023-04-24T09:48:03;16.90;62.70
66928;DHT22;59882;45.624;11.698;2023-04-24T09:50:31;16.90;65.20
66928;DHT22;59882;45.624;11.698;2023-04-24T09:53:07;16.90;63.80
66928;DHT22;59882;45.624;11.698;2023-04-24T09:55:42;17.00;63.10
66928;DHT22;59882;45.624;11.698;2023-04-24T09:58:10;17.10;63.40
66928;DHT22;59882;45.624;11.698;2023-04-24T10:00:36;17.20;61.80
66928;DHT22;59882;45.624;11.698;2023-04-24T10:03:04;17.20;61.40
66928;DHT22;59882;45.624;11.698;2023-04-24T10:05:34;17.30;63.00
66928;DHT22;59882;45.624;11.698;2023-04-24T10:08:08;17.40;64.50
66928;DHT22;59882;45.624;11.698;2023-04-24T10:10:38;17.50;65.60
66928;DHT22;59882;45.624;11.698;2023-04-24T10:13:04;17.60;64.60
66928;DHT22;59882;45.624;11.698;2023-04-24T10:15:31;17.70;63.50
66928;DHT22;59882;45.624;11.698;2023-04-24T10:18:00;17.70;62.60
66928;DHT22;59882;45.624;11.698;2023-04-24T10:20:28;17.80;62.60
66928;DHT22;59882;45.624;11.698;2023-04-24T10:22:55;17.90;63.20
66928;DHT22;59882;45.624;11.698;2023-04-24T10:25:23;18.00;63.60
66928;DHT22;59882;45.624;11.698;2023-04-24T10:27:50;18.10;62.80
66928;DHT22;59882;45.624;11.698;2023-04-24T10:30:20;18.30;63.10
66928;DHT22;59882;45.624;11.698;2023-04-24T10:32:46;18.40;63.00
66928;DHT22;59882;45.624;11.698;2023-04-24T10:35:12;18.50;62.20
66928;DHT22;59882;45.624;11.698;2023-04-24T10:38:12;18.60;62.20
66928;DHT22;59882;45.624;11.698;2023-04-24T10:40:38;18.60;59.90
66928;DHT22;59882;45.624;11.698;2023-04-24T10:43:06;18.70;60.20
66928;DHT22;59882;45.624;11.698;2023-04-24T10:45:33;18.80;60.60
66928;DHT22;59882;45.624;11.698;2023-04-24T10:48:02;18.90;58.00
66928;DHT22;59882;45.624;11.698;2023-04-24T10:50:29;19.00;58.60
66928;DHT22;59882;45.624;11.698;2023-04-24T10:53:06;19.10;58.90
66928;DHT22;59882;45.624;11.698;2023-04-24T10:55:50;19.20;59.60
66928;DHT22;59882;45.624;11.698;2023-04-24T10:58:16;19.30;58.80
66928;DHT22;59882;45.624;11.698;2023-04-24T11:00:56;19.40;57.40
66928;DHT22;59882;45.624;11.698;2023-04-24T11:05:56;19.50;58.40
66928;DHT22;59882;45.624;11.698;2023-04-24T11:08:44;19.60;58.40
66928;DHT22;59882;45.624;11.698;2023-04-24T11:11:15;19.70;57.20
66928;DHT22;59882;45.624;11.698;2023-04-24T11:21:48;19.90;57.30
66928;DHT22;59882;45.624;11.698;2023-04-24T11:24:38;19.90;57.60
66928;DHT22;59882;45.624;11.698;2023-04-24T11:29:48;20.00;55.30
66928;DHT22;59882;45.624;11.698;2023-04-24T11:37:37;20.10;54.80
66928;DHT22;59882;45.624;11.698;2023-04-24T11:40:05;20.20;54.50
66928;DHT22;59882;45.624;11.698;2023-04-24T11:42:35;20.20;53.30
66928;DHT22;59882;45.624;11.698;2023-04-24T11:45:01;20.10;52.80
66928;DHT22;59882;45.624;11.698;2023-04-24T11:47:30;20.10;52.50
66928;DHT22;59882;45.624;11.698;2023-04-24T11:49:58;20.10;54.10
66928;DHT22;59882;45.624;11.698;2023-04-24T11:52:25;20.20;54.80
66928;DHT22;59882;45.624;11.698;2023-04-24T11:54:50;20.20;51.90
66928;DHT22;59882;45.624;11.698;2023-04-24T11:57:18;20.20;54.00
66928;DHT22;59882;45.624;11.698;2023-04-24T11:59:44;20.20;52.90
66928;DHT22;59882;45.624;11.698;2023-04-24T12:02:23;20.20;54.40
66928;DHT22;59882;45.624;11.698;2023-04-24T12:04:48;20.40;55.00
66928;DHT22;59882;45.624;11.698;2023-04-24T12:07:14;20.40;54.40
66928;DHT22;59882;45.624;11.698;2023-04-24T12:09:47;20.60;55.70
66928;DHT22;59882;45.624;11.698;2023-04-24T12:12:17;20.70;55.20
66928;DHT22;59882;45.624;11.698;2023-04-24T12:15:06;20.80;53.20
66928;DHT22;59882;45.624;11.698;2023-04-24T12:17:34;20.90;53.60
66928;DHT22;59882;45.624;11.698;2023-04-24T12:20:01;21.10;55.00
66928;DHT22;59882;45.624;11.698;2023-04-24T12:22:28;21.20;54.70
66928;DHT22;59882;45.624;11.698;2023-04-24T12:25:14;21.20;53.50
66928;DHT22;59882;45.624;11.698;2023-04-24T12:27:40;21.40;52.80
66928;DHT22;59882;45.624;11.698;2023-04-24T12:30:09;21.50;54.20
66928;DHT22;59882;45.624;11.698;2023-04-24T12:32:40;21.60;53.80
66928;DHT22;59882;45.624;11.698;2023-04-24T12:35:06;21.80;54.10
66928;DHT22;59882;45.624;11.698;2023-04-24T12:37:33;21.90;54.80
66928;DHT22;59882;45.624;11.698;2023-04-24T12:42:31;22.40;50.80
66928;DHT22;59882;45.624;11.698;2023-04-24T12:45:02;23.10;52.10
66928;DHT22;59882;45.624;11.698;2023-04-24T12:47:30;24.40;47.60
66928;DHT22;59882;45.624;11.698;2023-04-24T12:49:56;25.10;45.60
66928;DHT22;59882;45.624;11.698;2023-04-24T12:52:23;25.30;45.90
66928;DHT22;59882;45.624;11.698;2023-04-24T12:54:56;26.10;44.70
66928;DHT22;59882;45.624;11.698;2023-04-24T12:57:23;27.60;42.70
66928;DHT22;59882;45.624;11.698;2023-04-24T12:59:48;28.90;38.40
66928;DHT22;59882;45.624;11.698;2023-04-24T13:02:14;29.70;37.10
66928;DHT22;59882;45.624;11.698;2023-04-24T13:04:44;29.70;35.50
66928;DHT22;59882;45.624;11.698;2023-04-24T13:07:11;29.00;36.60
66928;DHT22;59882;45.624;11.698;2023-04-24T13:09:37;28.30;38.00
66928;DHT22;59882;45.624;11.698;2023-04-24T13:12:03;28.10;39.10
66928;DHT22;59882;45.624;11.698;2023-04-24T13:14:31;29.20;38.10
66928;DHT22;59882;45.624;11.698;2023-04-24T13:16:57;30.50;35.80
66928;DHT22;59882;45.624;11.698;2023-04-24T13:19:25;32.00;33.20
66928;DHT22;59882;45.624;11.698;2023-04-24T13:21:52;33.00;31.50
66928;DHT22;59882;45.624;11.698;2023-04-24T13:24:17;33.90;30.90
66928;DHT22;59882;45.624;11.698;2023-04-24T13:26:43;34.70;28.90
66928;DHT22;59882;45.624;11.698;2023-04-24T13:29:09;35.40;27.80
66928;DHT22;59882;45.624;11.698;2023-04-24T13:31:35;36.00;27.30
66928;DHT22;59882;45.624;11.698;2023-04-24T13:34:02;36.50;26.30
66928;DHT22;59882;45.624;11.698;2023-04-24T13:36:28;36.70;25.90
66928;DHT22;59882;45.624;11.698;2023-04-24T13:38:53;37.00;26.20
66928;DHT22;59882;45.624;11.698;2023-04-24T13:41:19;37.30;26.10
66928;DHT22;59882;45.624;11.698;2023-04-24T13:43:44;37.60;26.20
66928;DHT22;59882;45.624;11.698;2023-04-24T13:46:10;37.90;26.50
66928;DHT22;59882;45.624;11.698;2023-04-24T13:48:36;38.20;25.20
66928;DHT22;59882;45.624;11.698;2023-04-24T13:51:01;38.50;26.20
66928;DHT22;59882;45.624;11.698;2023-04-24T13:53:27;38.70;24.40
66928;DHT22;59882;45.624;11.698;2023-04-24T13:55:53;38.80;24.00
66928;DHT22;59882;45.624;11.698;2023-04-24T13:58:18;38.60;23.90
66928;DHT22;59882;45.624;11.698;2023-04-24T14:00:44;38.30;24.00
66928;DHT22;59882;45.624;11.698;2023-04-24T14:03:10;37.50;24.30
66928;DHT22;59882;45.624;11.698;2023-04-24T14:05:36;36.50;25.10
66928;DHT22;59882;45.624;11.698;2023-04-24T14:08:01;35.80;26.80
66928;DHT22;59882;45.624;11.698;2023-04-24T14:10:27;35.60;27.00
66928;DHT22;59882;45.624;11.698;2023-04-24T14:12:53;35.80;26.70
66928;DHT22;59882;45.624;11.698;2023-04-24T14:15:19;35.90;25.90
66928;DHT22;59882;45.624;11.698;2023-04-24T14:17:45;36.10;26.40
66928;DHT22;59882;45.624;11.698;2023-04-24T14:20:12;36.20;26.00
66928;DHT22;59882;45.624;11.698;2023-04-24T14:22:38;36.40;26.60
66928;DHT22;59882;45.624;11.698;2023-04-24T14:25:04;36.50;26.60
66928;DHT22;59882;45.624;11.698;2023-04-24T14:27:31;36.60;25.50
66928;DHT22;59882;45.624;11.698;2023-04-24T14:29:57;36.70;25.30
66928;DHT22;59882;45.624;11.698;2023-04-24T14:32:23;36.80;25.10
66928;DHT22;59882;45.624;11.698;2023-04-24T14:34:48;36.70;24.20
66928;DHT22;59882;45.624;11.698;2023-04-24T14:37:14;36.70;25.10
66928;DHT22;59882;45.624;11.698;2023-04-24T14:39:40;36.60;24.90
66928;DHT22;59882;45.624;11.698;2023-04-24T14:42:06;36.50;25.00
66928;DHT22;59882;45.624;11.698;2023-04-24T14:44:32;36.50;25.20
66928;DHT22;59882;45.624;11.698;2023-04-24T14:46:58;36.50;25.50
66928;DHT22;59882;45.624;11.698;2023-04-24T14:49:24;36.50;26.20
66928;DHT22;59882;45.624;11.698;2023-04-24T14:51:50;36.50;25.20
66928;DHT22;59882;45.624;11.698;2023-04-24T14:54:15;36.30;24.90
66928;DHT22;59882;45.624;11.698;2023-04-24T14:56:42;36.00;24.70
66928;DHT22;59882;45.624;11.698;2023-04-24T14:59:09;35.70;25.60
66928;DHT22;59882;45.624;11.698;2023-04-24T15:01:35;35.30;26.10
66928;DHT22;59882;45.624;11.698;2023-04-24T15:04:01;34.50;26.60
66928;DHT22;59882;45.624;11.698;2023-04-24T15:06:26;33.80;27.50
66928;DHT22;59882;45.624;11.698;2023-04-24T15:08:52;33.50;28.40
66928;DHT22;59882;45.624;11.698;2023-04-24T15:11:18;33.50;28.00
66928;DHT22;59882;45.624;11.698;2023-04-24T15:13:44;33.60;28.60
66928;DHT22;59882;45.624;11.698;2023-04-24T15:16:12;33.80;27.50
66928;DHT22;59882;45.624;11.698;2023-04-24T15:18:38;33.60;28.00
66928;DHT22;59882;45.624;11.698;2023-04-24T15:21:04;33.30;28.20
66928;DHT22;59882;45.624;11.698;2023-04-24T15:23:29;33.00;28.40
66928;DHT22;59882;45.624;11.698;2023-04-24T15:25:55;32.80;28.50
66928;DHT22;59882;45.624;11.698;2023-04-24T15:28:21;32.40;29.60
66928;DHT22;59882;45.624;11.698;2023-04-24T15:30:47;31.70;30.00
66928;DHT22;59882;45.624;11.698;2023-04-24T15:33:13;31.20;31.10
66928;DHT22;59882;45.624;11.698;2023-04-24T15:35:39;30.50;32.10
66928;DHT22;59882;45.624;11.698;2023-04-24T15:38:05;29.90;32.90